sensor_id;sensor_type;location;lat;lon;timestamp;temperature;humidity
16871;DHT22;8552;48.120;-1.456;2022-08-06T00:01:51;11.20;99.90
16871;DHT22;8552;48.120;-1.456;2022-08-06T00:04:17;11.20;99.90
16871;DHT22;8552;48.120;-1.456;2022-08-06T00:06:43;11.00;99.90
16871;DHT22;8552;48.120;-1.456;2022-08-06T00:09:09;11.00;99.90
16871;DHT22;8552;48.120;-1.456;2022-08-06T00:11:36;10.90;99.90
16871;DHT22;8552;48.120;-1.456;2022-08-06T00:14:02;10.90;99.90
16871;DHT22;8552;48.120;-1.456;2022-08-06T00:16:28;10.90;99.90
16871;DHT22;8552;48.120;-1.456;2022-08-06T00:18:54;10.90;99.90
16871;DHT22;8552;48.120;-1.456;2022-08-06T00:21:19;10.90;99.90
16871;DHT22;8552;48.120;-1.456;2022-08-06T00:23:45;10.90;99.90
16871;DHT22;8552;48.120;-1.456;2022-08-06T00:26:11;10.80;99.90
16871;DHT22;8552;48.120;-1.456;2022-08-06T00:28:36;10.80;99.90
16871;DHT22;8552;48.120;-1.456;2022-08-06T00:31:04;10.70;99.90
16871;DHT22;8552;48.120;-1.456;2022-08-06T00:33:30;10.60;99.90
16871;DHT22;8552;48.120;-1.456;2022-08-06T00:35:55;10.60;99.90
16871;DHT22;8552;48.120;-1.456;2022-08-06T00:38:21;10.50;99.90
16871;DHT22;8552;48.120;-1.456;2022-08-06T00:40:48;10.50;99.90
16871;DHT22;8552;48.120;-1.456;2022-08-06T00:43:14;10.50;99.90
16871;DHT22;8552;48.120;-1.456;2022-08-06T00:45:40;10.50;99.90
16871;DHT22;8552;48.120;-1.456;2022-08-06T00:48:06;10.40;99.90
16871;DHT22;8552;48.120;-1.456;2022-08-06T00:50:32;10.40;99.90
16871;DHT22;8552;48.120;-1.456;2022-08-06T00:53:02;10.30;99.90
16871;DHT22;8552;48.120;-1.456;2022-08-06T00:55:29;10.30;99.90
16871;DHT22;8552;48.120;-1.456;2022-08-06T00:57:54;10.30;99.90
16871;DHT22;8552;48.120;-1.456;2022-08-06T01:00:20;10.30;99.90
16871;DHT22;8552;48.120;-1.456;2022-08-06T01:02:46;10.20;99.90
16871;DHT22;8552;48.120;-1.456;2022-08-06T01:05:12;10.20;99.90
16871;DHT22;8552;48.120;-1.456;2022-08-06T01:07:37;10.20;99.90
16871;DHT22;8552;48.120;-1.456;2022-08-06T01:10:03;10.20;99.90
16871;DHT22;8552;48.120;-1.456;2022-08-06T01:12:29;10.10;99.90
16871;DHT22;8552;48.120;-1.456;2022-08-06T01:14:55;10.10;99.90
16871;DHT22;8552;48.120;-1.456;2022-08-06T01:17:41;10.10;99.90
16871;DHT22;8552;48.120;-1.456;2022-08-06T01:28:58;10.00;99.90
16871;DHT22;8552;48.120;-1.456;2022-08-06T01:31:41;9.90;99.90
16871;DHT22;8552;48.120;-1.456;2022-08-06T01:34:35;10.00;99.90
16871;DHT22;8552;48.120;-1.456;2022-08-06T01:37:11;9.90;99.90
16871;DHT22;8552;48.120;-1.456;2022-08-06T01:39:42;9.90;99.90
16871;DHT22;8552;48.120;-1.456;2022-08-06T01:42:10;9.90;99.90
16871;DHT22;8552;48.120;-1.456;2022-08-06T01:44:40;9.80;99.90
16871;DHT22;8552;48.120;-1.456;2022-08-06T01:47:12;9.80;99.90
16871;DHT22;8552;48.120;-1.456;2022-08-06T01:49:40;9.80;99.90
16871;DHT22;8552;48.120;-1.456;2022-08-06T01:52:08;9.90;99.90
16871;DHT22;8552;48.120;-1.456;2022-08-06T01:54:45;10.00;99.90
16871;DHT22;8552;48.120;-1.456;2022-08-06T01:57:13;10.10;99.90
16871;DHT22;8552;48.120;-1.456;2022-08-06T01:59:45;10.10;99.90
16871;DHT22;8552;48.120;-1.456;2022-08-06T02:02:16;10.20;99.90
16871;DHT22;8552;48.120;-1.456;2022-08-06T02:04:45;10.20;99.90
16871;DHT22;8552;48.120;-1.456;2022-08-06T02:07:13;10.20;99.90
16871;DHT22;8552;48.120;-1.456;2022-08-06T02:09:43;10.20;99.90
16871;DHT22;8552;48.120;-1.456;2022-08-06T02:12:21;10.10;99.90
16871;DHT22;8552;48.120;-1.456;2022-08-06T02:14:53;10.10;99.90
16871;DHT22;8552;48.120;-1.456;2022-08-06T02:17:24;10.20;99.90
16871;DHT22;8552;48.120;-1.456;2022-08-06T02:19:51;10.20;99.90
16871;DHT22;8552;48.120;-1.456;2022-08-06T02:22:19;10.20;99.90
16871;DHT22;8552;48.120;-1.456;2022-08-06T02:24:46;10.30;99.90
16871;DHT22;8552;48.120;-1.456;2022-08-06T02:27:14;10.30;99.90
16871;DHT22;8552;48.120;-1.456;2022-08-06T02:29:42;10.30;99.90
16871;DHT22;8552;48.120;-1.456;2022-08-06T02:32:09;10.30;99.90
16871;DHT22;8552;48.120;-1.456;2022-08-06T02:34:36;10.20;99.90
16871;DHT22;8552;48.120;-1.456;2022-08-06T02:37:11;10.10;99.90
16871;DHT22;8552;48.120;-1.456;2022-08-06T02:39:44;10.00;99.90
16871;DHT22;8552;48.120;-1.456;2022-08-06T02:45:03;9.90;99.90
16871;DHT22;8552;48.120;-1.456;2022-08-06T02:47:30;9.90;99.90
16871;DHT22;8552;48.120;-1.456;2022-08-06T02:49:59;9.80;99.90
16871;DHT22;8552;48.120;-1.456;2022-08-06T02:52:39;9.80;99.90
16871;DHT22;8552;48.120;-1.456;2022-08-06T02:55:18;9.80;99.90
16871;DHT22;8552;48.120;-1.456;2022-08-06T02:57:50;9.70;99.90
16871;DHT22;8552;48.120;-1.456;2022-08-06T03:00:17;9.70;99.90
16871;DHT22;8552;48.120;-1.456;2022-08-06T03:02:45;9.70;99.90
16871;DHT22;8552;48.120;-1.456;2022-08-06T03:05:15;9.70;99.90
16871;DHT22;8552;48.120;-1.456;2022-08-06T03:07:42;9.60;99.90
16871;DHT22;8552;48.120;-1.456;2022-08-06T03:10:11;9.60;99.90
16871;DHT22;8552;48.120;-1.456;2022-08-06T03:12:37;9.50;99.90
16871;DHT22;8552;48.120;-1.456;2022-08-06T03:15:04;9.50;99.90
16871;DHT22;8552;48.120;-1.456;2022-08-06T03:17:32;9.50;99.90
16871;DHT22;8552;48.120;-1.456;2022-08-06T03:20:00;9.40;99.90
16871;DHT22;8552;48.120;-1.456;2022-08-06T03:22:28;9.40;99.90
16871;DHT22;8552;48.120;-1.456;2022-08-06T03:24:57;9.40;99.90
16871;DHT22;8552;48.120;-1.456;2022-08-06T03:27:23;9.40;99.90
16871;DHT22;8552;48.120;-1.456;2022-08-06T03:29:51;9.30;99.90
16871;DHT22;8552;48.120;-1.456;2022-08-06T03:32:18;9.30;99.90
16871;DHT22;8552;48.120;-1.456;2022-08-06T03:34:45;9.30;99.90
16871;DHT22;8552;48.120;-1.456;2022-08-06T03:37:12;9.20;99.90
16871;DHT22;8552;48.120;-1.456;2022-08-06T03:39:39;9.20;99.90
16871;DHT22;8552;48.120;-1.456;2022-08-06T03:42:07;9.20;99.90
16871;DHT22;8552;48.120;-1.456;2022-08-06T03:44:32;9.20;99.90
16871;DHT22;8552;48.120;-1.456;2022-08-06T03:47:07;9.20;99.90
16871;DHT22;8552;48.120;-1.456;2022-08-06T03:49:45;9.10;99.90
16871;DHT22;8552;48.120;-1.456;2022-08-06T03:52:22;9.10;99.90
16871;DHT22;8552;48.120;-1.456;2022-08-06T03:54:52;9.10;99.90
16871;DHT22;8552;48.120;-1.456;2022-08-06T03:57:20;9.10;99.90
16871;DHT22;8552;48.120;-1.456;2022-08-06T03:59:50;9.10;99.90
16871;DHT22;8552;48.120;-1.456;2022-08-06T04:02:18;9.10;99.90
16871;DHT22;8552;48.120;-1.456;2022-08-06T04:04:45;9.00;99.90
16871;DHT22;8552;48.120;-1.456;2022-08-06T04:07:14;9.10;99.90
16871;DHT22;8552;48.120;-1.456;2022-08-06T04:09:42;9.00;99.90
16871;DHT22;8552;48.120;-1.456;2022-08-06T04:12:08;9.10;99.90
16871;DHT22;8552;48.120;-1.456;2022-08-06T04:14:35;9.00;99.90
16871;DHT22;8552;48.120;-1.456;2022-08-06T04:17:02;9.10;99.90
16871;DHT22;8552;48.120;-1.456;2022-08-06T04:19:30;9.00;99.90
16871;DHT22;8552;48.120;-1.456;2022-08-06T04:21:58;9.00;99.90
16871;DHT22;8552;48.120;-1.456;2022-08-06T04:24:25;9.00;99.90
16871;DHT22;8552;48.120;-1.456;2022-08-06T04:26:53;9.00;99.90
16871;DHT22;8552;48.120;-1.456;2022-08-06T04:29:21;9.00;99.90
16871;DHT22;8552;48.120;-1.456;2022-08-06T04:31:49;8.90;99.90
16871;DHT22;8552;48.120;-1.456;2022-08-06T04:34:23;8.90;99.90
16871;DHT22;8552;48.120;-1.456;2022-08-06T04:36:50;8.80;99.90
16871;DHT22;8552;48.120;-1.456;2022-08-06T04:39:17;8.90;99.90
16871;DHT22;8552;48.120;-1.456;2022-08-06T04:41:43;8.80;99.90
16871;DHT22;8552;48.120;-1.456;2022-08-06T04:44:10;8.80;99.90
16871;DHT22;8552;48.120;-1.456;2022-08-06T04:46:37;8.80;99.90
16871;DHT22;8552;48.120;-1.456;2022-08-06T04:49:03;8.70;99.90
16871;DHT22;8552;48.120;-1.456;2022-08-06T04:51:29;8.70;99.90
16871;DHT22;8552;48.120;-1.456;2022-08-06T04:53:54;8.80;99.90
16871;DHT22;8552;48.120;-1.456;2022-08-06T04:56:21;8.80;99.90
16871;DHT22;8552;48.120;-1.456;2022-08-06T04:58:47;8.80;99.90
16871;DHT22;8552;48.120;-1.456;2022-08-06T05:01:13;8.80;99.90
16871;DHT22;8552;48.120;-1.456;2022-08-06T05:03:39;8.70;99.90
16871;DHT22;8552;48.120;-1.456;2022-08-06T05:09:11;8.90;99.90
16871;DHT22;8552;48.120;-1.456;2022-08-06T05:11:41;8.80;99.90
16871;DHT22;8552;48.120;-1.456;2022-08-06T05:14:15;8.80;99.90
16871;DHT22;8552;48.120;-1.456;2022-08-06T05:16:44;8.90;99.90
16871;DHT22;8552;48.120;-1.456;2022-08-06T05:19:45;8.90;99.90
16871;DHT22;8552;48.120;-1.456;2022-08-06T05:22:13;9.00;99.90
16871;DHT22;8552;48.120;-1.456;2022-08-06T05:24:41;9.00;99.90
16871;DHT22;8552;48.120;-1.456;2022-08-06T05:27:08;9.00;99.90
16871;DHT22;8552;48.120;-1.456;2022-08-06T05:29:34;9.10;99.90
16871;DHT22;8552;48.120;-1.456;2022-08-06T05:32:00;9.10;99.90
16871;DHT22;8552;48.120;-1.456;2022-08-06T05:34:27;9.10;99.90
16871;DHT22;8552;48.120;-1.456;2022-08-06T05:36:53;9.10;99.90
16871;DHT22;8552;48.120;-1.456;2022-08-06T05:39:19;9.30;99.90
16871;DHT22;8552;48.120;-1.456;2022-08-06T05:41:46;9.40;99.90
16871;DHT22;8552;48.120;-1.456;2022-08-06T05:44:11;9.50;99.90
16871;DHT22;8552;48.120;-1.456;2022-08-06T05:46:59;9.70;99.90
16871;DHT22;8552;48.120;-1.456;2022-08-06T05:49:41;10.40;99.90
16871;DHT22;8552;48.120;-1.456;2022-08-06T05:52:17;10.60;99.90
16871;DHT22;8552;48.120;-1.456;2022-08-06T05:54:48;11.10;99.90
16871;DHT22;8552;48.120;-1.456;2022-08-06T05:57:42;10.80;99.90
16871;DHT22;8552;48.120;-1.456;2022-08-06T06:00:09;10.80;99.90
16871;DHT22;8552;48.120;-1.456;2022-08-06T06:02:38;11.20;99.90
16871;DHT22;8552;48.120;-1.456;2022-08-06T06:05:06;11.20;99.90
16871;DHT22;8552;48.120;-1.456;2022-08-06T06:07:34;11.20;99.90
16871;DHT22;8552;48.120;-1.456;2022-08-06T06:10:02;11.30;99.90
16871;DHT22;8552;48.120;-1.456;2022-08-06T06:12:29;11.20;99.90
16871;DHT22;8552;48.120;-1.456;2022-08-06T06:14:56;11.20;99.90
16871;DHT22;8552;48.120;-1.456;2022-08-06T06:20:49;11.30;99.90
16871;DHT22;8552;48.120;-1.456;2022-08-06T06:23:30;11.50;99.90
16871;DHT22;8552;48.120;-1.456;2022-08-06T06:26:13;12.00;99.90
16871;DHT22;8552;48.120;-1.456;2022-08-06T06:34:17;12.30;99.90
16871;DHT22;8552;48.120;-1.456;2022-08-06T06:45:40;13.60;99.90
16871;DHT22;8552;48.120;-1.456;2022-08-06T06:48:19;13.60;99.90
16871;DHT22;8552;48.120;-1.456;2022-08-06T06:50:49;13.90;99.90
16871;DHT22;8552;48.120;-1.456;2022-08-06T06:53:16;14.00;99.90
16871;DHT22;8552;48.120;-1.456;2022-08-06T06:55:48;14.30;99.90
16871;DHT22;8552;48.120;-1.456;2022-08-06T06:58:27;14.50;99.90
16871;DHT22;8552;48.120;-1.456;2022-08-06T07:00:55;14.70;99.90
16871;DHT22;8552;48.120;-1.456;2022-08-06T07:03:22;14.80;99.90
16871;DHT22;8552;48.120;-1.456;2022-08-06T07:05:49;14.90;99.90
16871;DHT22;8552;48.120;-1.456;2022-08-06T07:08:19;15.10;99.90
16871;DHT22;8552;48.120;-1.456;2022-08-06T07:10:45;15.30;99.90
16871;DHT22;8552;48.120;-1.456;2022-08-06T07:13:13;15.40;99.90
16871;DHT22;8552;48.120;-1.456;2022-08-06T07:15:41;15.60;99.90
16871;DHT22;8552;48.120;-1.456;2022-08-06T07:18:07;15.70;99.90
16871;DHT22;8552;48.120;-1.456;2022-08-06T07:20:34;15.80;99.90
16871;DHT22;8552;48.120;-1.456;2022-08-06T07:23:03;16.00;99.90
16871;DHT22;8552;48.120;-1.456;2022-08-06T07:25:29;16.10;99.90
16871;DHT22;8552;48.120;-1.456;2022-08-06T07:27:55;16.20;99.90
16871;DHT22;8552;48.120;-1.456;2022-08-06T07:30:21;16.40;99.90
16871;DHT22;8552;48.120;-1.456;2022-08-06T07:32:48;16.50;99.90
16871;DHT22;8552;48.120;-1.456;2022-08-06T07:35:16;16.60;99.90
16871;DHT22;8552;48.120;-1.456;2022-08-06T07:37:56;16.80;99.90
16871;DHT22;8552;48.120;-1.456;2022-08-06T07:40:34;16.90;99.90
16871;DHT22;8552;48.120;-1.456;2022-08-06T07:43:08;17.10;99.90
16871;DHT22;8552;48.120;-1.456;2022-08-06T07:45:37;17.30;99.90
16871;DHT22;8552;48.120;-1.456;2022-08-06T07:48:07;17.40;99.90
16871;DHT22;8552;48.120;-1.456;2022-08-06T07:50:33;17.50;99.90
16871;DHT22;8552;48.120;-1.456;2022-08-06T07:52:59;17.50;99.90
16871;DHT22;8552;48.120;-1.456;2022-08-06T07:55:26;17.60;99.90
16871;DHT22;8552;48.120;-1.456;2022-08-06T07:57:54;17.80;99.90
16871;DHT22;8552;48.120;-1.456;2022-08-06T08:00:20;17.80;99.90
16871;DHT22;8552;48.120;-1.456;2022-08-06T08:02:48;18.00;99.90
16871;DHT22;8552;48.120;-1.456;2022-08-06T08:05:35;18.10;98.90
16871;DHT22;8552;48.120;-1.456;2022-08-06T08:08:21;18.20;98.80
16871;DHT22;8552;48.120;-1.456;2022-08-06T08:10:47;18.30;98.70
16871;DHT22;8552;48.120;-1.456;2022-08-06T08:13:14;18.40;96.50
16871;DHT22;8552;48.120;-1.456;2022-08-06T08:15:44;18.60;96.60
16871;DHT22;8552;48.120;-1.456;2022-08-06T08:18:11;18.70;95.70
16871;DHT22;8552;48.120;-1.456;2022-08-06T08:20:39;18.90;94.20
16871;DHT22;8552;48.120;-1.456;2022-08-06T08:23:08;19.00;92.90
16871;DHT22;8552;48.120;-1.456;2022-08-06T08:25:34;19.10;92.50
16871;DHT22;8552;48.120;-1.456;2022-08-06T08:28:00;19.10;91.90
16871;DHT22;8552;48.120;-1.456;2022-08-06T08:30:26;19.30;91.70
16871;DHT22;8552;48.120;-1.456;2022-08-06T08:32:51;19.50;90.00
16871;DHT22;8552;48.120;-1.456;2022-08-06T08:35:17;19.60;87.00
16871;DHT22;8552;48.120;-1.456;2022-08-06T08:37:43;19.70;86.40
16871;DHT22;8552;48.120;-1.456;2022-08-06T08:40:09;19.70;82.40
16871;DHT22;8552;48.120;-1.456;2022-08-06T08:42:43;19.90;80.50
16871;DHT22;8552;48.120;-1.456;2022-08-06T08:45:10;20.00;80.70
16871;DHT22;8552;48.120;-1.456;2022-08-06T08:47:44;20.20;80.60
16871;DHT22;8552;48.120;-1.456;2022-08-06T08:50:11;20.40;77.30
16871;DHT22;8552;48.120;-1.456;2022-08-06T08:52:39;20.40;72.20
16871;DHT22;8552;48.120;-1.456;2022-08-06T08:55:11;20.50;70.40
16871;DHT22;8552;48.120;-1.456;2022-08-06T08:57:38;20.70;69.60
16871;DHT22;8552;48.120;-1.456;2022-08-06T09:00:06;20.70;66.90
16871;DHT22;8552;48.120;-1.456;2022-08-06T09:02:32;20.80;66.30
16871;DHT22;8552;48.120;-1.456;2022-08-06T09:04:59;20.90;65.20
16871;DHT22;8552;48.120;-1.456;2022-08-06T09:07:26;20.90;62.10
16871;DHT22;8552;48.120;-1.456;2022-08-06T09:09:53;21.10;61.80
16871;DHT22;8552;48.120;-1.456;2022-08-06T09:12:19;21.00;59.90
16871;DHT22;8552;48.120;-1.456;2022-08-06T09:14:45;21.10;59.60
16871;DHT22;8552;48.120;-1.456;2022-08-06T09:17:11;21.30;59.20
16871;DHT22;8552;48.120;-1.456;2022-08-06T09:19:37;21.40;58.80
16871;DHT22;8552;48.120;-1.456;2022-08-06T09:22:03;21.60;58.70
16871;DHT22;8552;48.120;-1.456;2022-08-06T09:24:29;21.80;61.20
16871;DHT22;8552;48.120;-1.456;2022-08-06T09:27:07;21.90;56.80
16871;DHT22;8552;48.120;-1.456;2022-08-06T09:29:34;21.90;57.90
16871;DHT22;8552;48.120;-1.456;2022-08-06T09:32:00;22.20;55.10
16871;DHT22;8552;48.120;-1.456;2022-08-06T09:34:37;21.80;51.30
16871;DHT22;8552;48.120;-1.456;2022-08-06T09:37:03;21.90;51.90
16871;DHT22;8552;48.120;-1.456;2022-08-06T09:39:39;22.00;52.90
16871;DHT22;8552;48.120;-1.456;2022-08-06T09:42:06;22.00;51.10
16871;DHT22;8552;48.120;-1.456;2022-08-06T09:44:33;21.90;49.90
16871;DHT22;8552;48.120;-1.456;2022-08-06T09:47:00;21.90;50.60
16871;DHT22;8552;48.120;-1.456;2022-08-06T09:49:26;22.20;51.40
16871;DHT22;8552;48.120;-1.456;2022-08-06T09:52:15;22.40;53.50
16871;DHT22;8552;48.120;-1.456;2022-08-06T09:54:41;22.70;51.70
16871;DHT22;8552;48.120;-1.456;2022-08-06T09:57:08;22.50;47.90
16871;DHT22;8552;48.120;-1.456;2022-08-06T09:59:47;22.60;49.30
16871;DHT22;8552;48.120;-1.456;2022-08-06T10:02:14;22.50;50.20
16871;DHT22;8552;48.120;-1.456;2022-08-06T10:04:41;22.90;49.10
16871;DHT22;8552;48.120;-1.456;2022-08-06T10:07:07;22.80;48.00
16871;DHT22;8552;48.120;-1.456;2022-08-06T10:09:33;22.80;48.50
16871;DHT22;8552;48.120;-1.456;2022-08-06T10:11:59;22.80;47.20
16871;DHT22;8552;48.120;-1.456;2022-08-06T10:14:30;22.50;47.00
16871;DHT22;8552;48.120;-1.456;2022-08-06T10:17:09;22.60;46.90
16871;DHT22;8552;48.120;-1.456;2022-08-06T10:19:37;22.60;48.10
16871;DHT22;8552;48.120;-1.456;2022-08-06T10:22:08;22.60;47.70
16871;DHT22;8552;48.120;-1.456;2022-08-06T10:24:37;22.50;48.00
16871;DHT22;8552;48.120;-1.456;2022-08-06T10:27:10;22.60;47.90
16871;DHT22;8552;48.120;-1.456;2022-08-06T10:29:40;22.80;46.90
16871;DHT22;8552;48.120;-1.456;2022-08-06T10:32:09;22.90;47.10
16871;DHT22;8552;48.120;-1.456;2022-08-06T10:34:39;22.80;46.70
16871;DHT22;8552;48.120;-1.456;2022-08-06T10:37:06;23.10;46.70
16871;DHT22;8552;48.120;-1.456;2022-08-06T10:39:35;23.20;47.70
16871;DHT22;8552;48.120;-1.456;2022-08-06T10:42:03;23.30;46.20
16871;DHT22;8552;48.120;-1.456;2022-08-06T10:44:31;23.40;47.20
16871;DHT22;8552;48.120;-1.456;2022-08-06T10:46:58;24.00;47.80
16871;DHT22;8552;48.120;-1.456;2022-08-06T10:49:25;24.10;45.80
16871;DHT22;8552;48.120;-1.456;2022-08-06T10:51:51;23.70;44.60
16871;DHT22;8552;48.120;-1.456;2022-08-06T10:54:18;23.80;44.10
16871;DHT22;8552;48.120;-1.456;2022-08-06T10:56:46;23.70;43.50
16871;DHT22;8552;48.120;-1.456;2022-08-06T10:59:16;24.00;43.50
16871;DHT22;8552;48.120;-1.456;2022-08-06T11:04:52;24.50;45.10
16871;DHT22;8552;48.120;-1.456;2022-08-06T11:10:43;23.70;44.80
16871;DHT22;8552;48.120;-1.456;2022-08-06T11:16:00;23.70;43.50
16871;DHT22;8552;48.120;-1.456;2022-08-06T11:18:26;23.80;44.80
16871;DHT22;8552;48.120;-1.456;2022-08-06T11:20:52;24.30;45.00
16871;DHT22;8552;48.120;-1.456;2022-08-06T11:25:45;25.00;45.00
16871;DHT22;8552;48.120;-1.456;2022-08-06T11:31:06;24.70;41.80
16871;DHT22;8552;48.120;-1.456;2022-08-06T11:36:09;25.00;42.30
16871;DHT22;8552;48.120;-1.456;2022-08-06T11:41:22;25.10;42.80
16871;DHT22;8552;48.120;-1.456;2022-08-06T11:46:25;24.60;42.30
16871;DHT22;8552;48.120;-1.456;2022-08-06T11:51:53;24.60;42.10
16871;DHT22;8552;48.120;-1.456;2022-08-06T11:54:31;24.80;41.90
16871;DHT22;8552;48.120;-1.456;2022-08-06T11:59:29;24.90;42.20
16871;DHT22;8552;48.120;-1.456;2022-08-06T12:01:55;24.60;41.90
16871;DHT22;8552;48.120;-1.456;2022-08-06T12:07:27;25.20;44.00
16871;DHT22;8552;48.120;-1.456;2022-08-06T12:23:07;25.70;41.20
16871;DHT22;8552;48.120;-1.456;2022-08-06T12:25:41;25.20;39.80
16871;DHT22;8552;48.120;-1.456;2022-08-06T12:28:09;25.50;42.60
16871;DHT22;8552;48.120;-1.456;2022-08-06T12:30:50;25.50;38.70
16871;DHT22;8552;48.120;-1.456;2022-08-06T12:33:17;25.40;39.30
16871;DHT22;8552;48.120;-1.456;2022-08-06T12:35:57;25.90;39.70
16871;DHT22;8552;48.120;-1.456;2022-08-06T12:38:25;25.40;39.40
16871;DHT22;8552;48.120;-1.456;2022-08-06T12:41:04;24.70;39.70
16871;DHT22;8552;48.120;-1.456;2022-08-06T12:43:34;25.00;41.10
16871;DHT22;8552;48.120;-1.456;2022-08-06T12:46:07;25.00;39.80
16871;DHT22;8552;48.120;-1.456;2022-08-06T12:48:34;25.60;42.60
16871;DHT22;8552;48.120;-1.456;2022-08-06T12:51:06;26.20;40.80
16871;DHT22;8552;48.120;-1.456;2022-08-06T12:53:33;26.00;39.20
16871;DHT22;8552;48.120;-1.456;2022-08-06T12:56:02;26.30;39.00
16871;DHT22;8552;48.120;-1.456;2022-08-06T12:58:36;26.00;38.70
16871;DHT22;8552;48.120;-1.456;2022-08-06T13:01:04;25.10;39.90
16871;DHT22;8552;48.120;-1.456;2022-08-06T13:03:32;25.00;39.40
16871;DHT22;8552;48.120;-1.456;2022-08-06T13:05:59;25.70;41.90
16871;DHT22;8552;48.120;-1.456;2022-08-06T13:08:27;26.10;39.30
16871;DHT22;8552;48.120;-1.456;2022-08-06T13:10:55;26.10;42.20
16871;DHT22;8552;48.120;-1.456;2022-08-06T13:13:21;26.30;39.80
16871;DHT22;8552;48.120;-1.456;2022-08-06T13:16:01;25.80;38.40
16871;DHT22;8552;48.120;-1.456;2022-08-06T13:18:27;25.70;38.20
16871;DHT22;8552;48.120;-1.456;2022-08-06T13:20:53;25.70;38.20
16871;DHT22;8552;48.120;-1.456;2022-08-06T13:23:34;25.70;38.00
16871;DHT22;8552;48.120;-1.456;2022-08-06T13:26:11;25.80;38.90
16871;DHT22;8552;48.120;-1.456;2022-08-06T13:28:38;26.00;39.60
16871;DHT22;8552;48.120;-1.456;2022-08-06T13:31:19;26.40;39.00
16871;DHT22;8552;48.120;-1.456;2022-08-06T13:34:03;26.60;38.20
16871;DHT22;8552;48.120;-1.456;2022-08-06T13:36:30;26.50;37.80
16871;DHT22;8552;48.120;-1.456;2022-08-06T13:38:56;26.10;37.30
16871;DHT22;8552;48.120;-1.456;2022-08-06T13:41:28;26.20;38.00
16871;DHT22;8552;48.120;-1.456;2022-08-06T13:43:57;26.50;38.40
16871;DHT22;8552;48.120;-1.456;2022-08-06T13:46:25;26.40;37.10
16871;DHT22;8552;48.120;-1.456;2022-08-06T13:48:53;26.60;38.70
16871;DHT22;8552;48.120;-1.456;2022-08-06T13:51:20;26.70;38.50
16871;DHT22;8552;48.120;-1.456;2022-08-06T13:53:46;26.60;37.20
16871;DHT22;8552;48.120;-1.456;2022-08-06T13:56:16;26.10;37.20
16871;DHT22;8552;48.120;-1.456;2022-08-06T13:58:42;25.60;37.00
16871;DHT22;8552;48.120;-1.456;2022-08-06T14:01:12;25.70;37.80
16871;DHT22;8552;48.120;-1.456;2022-08-06T14:03:38;26.30;37.30
16871;DHT22;8552;48.120;-1.456;2022-08-06T14:06:04;26.30;36.60
16871;DHT22;8552;48.120;-1.456;2022-08-06T14:08:30;25.80;37.70
16871;DHT22;8552;48.120;-1.456;2022-08-06T14:10:55;26.20;38.00
16871;DHT22;8552;48.120;-1.456;2022-08-06T14:13:22;26.50;38.30
16871;DHT22;8552;48.120;-1.456;2022-08-06T14:15:50;26.20;37.50
16871;DHT22;8552;48.120;-1.456;2022-08-06T14:18:17;26.60;37.90
16871;DHT22;8552;48.120;-1.456;2022-08-06T14:20:44;26.50;37.70
16871;DHT22;8552;48.120;-1.456;2022-08-06T14:23:12;26.60;37.10
16871;DHT22;8552;48.120;-1.456;2022-08-06T14:25:38;26.40;37.40
16871;DHT22;8552;48.120;-1.456;2022-08-06T14:28:04;27.20;37.90
16871;DHT22;8552;48.120;-1.456;2022-08-06T14:30:30;27.60;36.40
16871;DHT22;8552;48.120;-1.456;2022-08-06T14:32:57;27.10;37.40
16871;DHT22;8552;48.120;-1.456;2022-08-06T14:35:24;27.40;36.10
16871;DHT22;8552;48.120;-1.456;2022-08-06T14:37:50;26.90;36.40
16871;DHT22;8552;48.120;-1.456;2022-08-06T14:40:19;26.90;38.30
16871;DHT22;8552;48.120;-1.456;2022-08-06T14:43:05;26.80;35.90
16871;DHT22;8552;48.120;-1.456;2022-08-06T14:45:49;26.30;36.50
16871;DHT22;8552;48.120;-1.456;2022-08-06T14:48:15;26.40;37.40
16871;DHT22;8552;48.120;-1.456;2022-08-06T14:50:41;26.60;36.20
16871;DHT22;8552;48.120;-1.456;2022-08-06T14:53:06;26.70;37.70
16871;DHT22;8552;48.120;-1.456;2022-08-06T14:55:32;27.10;37.70
16871;DHT22;8552;48.120;-1.456;2022-08-06T14:57:58;27.30;36.60
16871;DHT22;8552;48.120;-1.456;2022-08-06T15:00:24;27.00;37.80
16871;DHT22;8552;48.120;-1.456;2022-08-06T15:02:50;27.00;36.70
16871;DHT22;8552;48.120;-1.456;2022-08-06T15:05:16;27.10;37.60
16871;DHT22;8552;48.120;-1.456;2022-08-06T15:07:42;27.60;37.30
16871;DHT22;8552;48.120;-1.456;2022-08-06T15:10:11;26.90;37.70
16871;DHT22;8552;48.120;-1.456;2022-08-06T15:12:37;26.40;37.20
16871;DHT22;8552;48.120;-1.456;2022-08-06T15:15:04;26.90;37.70
16871;DHT22;8552;48.120;-1.456;2022-08-06T15:17:30;26.80;38.00
16871;DHT22;8552;48.120;-1.456;2022-08-06T15:19:56;26.80;38.60
16871;DHT22;8552;48.120;-1.456;2022-08-06T15:22:21;27.50;37.40
16871;DHT22;8552;48.120;-1.456;2022-08-06T15:24:47;26.60;37.20
16871;DHT22;8552;48.120;-1.456;2022-08-06T15:27:13;27.10;36.20
16871;DHT22;8552;48.120;-1.456;2022-08-06T15:29:48;27.10;36.60
16871;DHT22;8552;48.120;-1.456;2022-08-06T15:32:13;27.10;37.20
16871;DHT22;8552;48.120;-1.456;2022-08-06T15:34:39;27.60;37.70
16871;DHT22;8552;48.120;-1.456;2022-08-06T15:37:05;26.90;36.00
16871;DHT22;8552;48.120;-1.456;2022-08-06T15:39:33;27.30;37.70
16871;DHT22;8552;48.120;-1.456;2022-08-06T15:41:59;26.90;36.70
16871;DHT22;8552;48.120;-1.456;2022-08-06T15:44:25;26.60;38.00
16871;DHT22;8552;48.120;-1.456;2022-08-06T15:46:50;26.60;37.90
16871;DHT22;8552;48.120;-1.456;2022-08-06T15:49:16;26.90;38.70
16871;DHT22;8552;48.120;-1.456;2022-08-06T15:51:42;26.80;37.50
16871;DHT22;8552;48.120;-1.456;2022-08-06T15:54:08;26.70;37.60
16871;DHT22;8552;48.120;-1.456;2022-08-06T15:56:33;26.80;38.30
16871;DHT22;8552;48.120;-1.456;2022-08-06T15:58:59;26.90;37.70
16871;DHT22;8552;48.120;-1.456;2022-08-06T16:01:25;26.80;37.30
16871;DHT22;8552;48.120;-1.456;2022-08-06T16:03:51;26.60;38.00
16871;DHT22;8552;48.120;-1.456;2022-08-06T16:06:16;26.60;36.80
16871;DHT22;8552;48.120;-1.456;2022-08-06T16:08:42;26.60;37.90
16871;DHT22;8552;48.120;-1.456;2022-08-06T16:11:10;26.70;37.40
16871;DHT22;8552;48.120;-1.456;2022-08-06T16:13:37;27.00;37.70
16871;DHT22;8552;48.120;-1.456;2022-08-06T16:16:02;26.70;36.60
16871;DHT22;8552;48.120;-1.456;2022-08-06T16:18:28;26.30;37.30
16871;DHT22;8552;48.120;-1.456;2022-08-06T16:20:56;26.50;36.80
16871;DHT22;8552;48.120;-1.456;2022-08-06T16:23:22;26.70;37.60
16871;DHT22;8552;48.120;-1.456;2022-08-06T16:25:48;26.40;36.80
16871;DHT22;8552;48.120;-1.456;2022-08-06T16:28:14;26.30;38.60
16871;DHT22;8552;48.120;-1.456;2022-08-06T16:30:40;26.40;37.40
16871;DHT22;8552;48.120;-1.456;2022-08-06T16:33:06;26.70;38.30
16871;DHT22;8552;48.120;-1.456;2022-08-06T16:35:32;27.10;37.60
16871;DHT22;8552;48.120;-1.456;2022-08-06T16:37:59;26.40;36.30
16871;DHT22;8552;48.120;-1.456;2022-08-06T16:40:25;26.20;36.40
16871;DHT22;8552;48.120;-1.456;2022-08-06T16:42:52;26.30;37.40
16871;DHT22;8552;48.120;-1.456;2022-08-06T16:45:19;26.60;36.50
16871;DHT22;8552;48.120;-1.456;2022-08-06T16:47:45;26.70;36.10
16871;DHT22;8552;48.120;-1.456;2022-08-06T16:50:11;26.70;36.60
16871;DHT22;8552;48.120;-1.456;2022-08-06T16:52:37;26.60;37.00
16871;DHT22;8552;48.120;-1.456;2022-08-06T16:55:04;26.20;36.80
16871;DHT22;8552;48.120;-1.456;2022-08-06T16:57:29;26.10;37.30
16871;DHT22;8552;48.120;-1.456;2022-08-06T16:59:55;26.20;36.90
16871;DHT22;8552;48.120;-1.456;2022-08-06T17:02:21;26.20;36.20